createdAt,value
2019-05-20T00:02:23.179Z,19.82
2019-05-20T00:04:39.452Z,18.60
2019-05-20T00:07:08.064Z,19.55
2019-05-20T00:09:36.580Z,19.95
2019-05-20T00:12:05.203Z,19.60
2019-05-20T00:14:33.792Z,19.02
2019-05-20T00:17:02.344Z,20.12
2019-05-20T00:19:30.792Z,18.65
2019-05-20T00:21:59.340Z,20.23
2019-05-20T00:24:27.964Z,19.45
2019-05-20T00:26:56.582Z,18.90
2019-05-20T00:29:25.118Z,18.75
2019-05-20T00:31:53.735Z,19.55
2019-05-20T00:34:34.627Z,19.48
2019-05-20T00:36:52.681Z,20.68
2019-05-20T00:39:21.671Z,20.23
2019-05-20T00:41:50.374Z,20.55
2019-05-20T00:44:19.366Z,19.15
2019-05-20T00:46:47.951Z,21.30
2019-05-20T00:49:16.676Z,21.57
2019-05-20T00:51:46.173Z,20.65
2019-05-20T00:54:14.973Z,20.45
2019-05-20T00:56:43.585Z,21.82
2019-05-20T00:59:12.176Z,23.42
2019-05-20T01:01:40.709Z,21.90
2019-05-20T01:04:09.186Z,23.73
2019-05-20T01:06:37.836Z,22.77
2019-05-20T01:09:07.828Z,24.65
2019-05-20T01:11:36.422Z,24.25
2019-05-20T01:14:05.319Z,24.25
2019-05-20T01:16:33.923Z,24.07
2019-05-20T01:19:02.629Z,24.10
2019-05-20T01:21:31.203Z,23.55
2019-05-20T01:23:59.792Z,23.50
2019-05-20T01:26:28.536Z,23.87
2019-05-20T01:28:57.080Z,25.68
2019-05-20T01:31:25.689Z,25.23
2019-05-20T01:33:54.281Z,24.43
2019-05-20T01:36:22.873Z,24.70
2019-05-20T01:38:51.358Z,24.60
2019-05-20T01:41:19.812Z,26.05
2019-05-20T01:43:48.300Z,25.72
2019-05-20T01:46:16.958Z,27.32
2019-05-20T01:48:45.571Z,28.73
2019-05-20T01:51:14.165Z,28.90
2019-05-20T01:53:42.717Z,28.10
2019-05-20T01:56:11.347Z,30.37
2019-05-20T01:58:40.111Z,28.42
2019-05-20T02:01:08.757Z,31.17
2019-05-20T02:03:37.290Z,29.23
2019-05-20T02:06:05.896Z,31.70
2019-05-20T02:08:34.423Z,31.05
2019-05-20T02:11:02.954Z,31.27
2019-05-20T02:13:49.991Z,29.32
2019-05-20T02:16:19.712Z,30.82
2019-05-20T02:18:48.393Z,30.80
2019-05-20T02:21:16.942Z,31.33
2019-05-20T02:23:45.513Z,30.80
2019-05-20T02:26:14.039Z,29.55
2019-05-20T02:28:42.748Z,30.00
2019-05-20T02:31:11.303Z,29.80
2019-05-20T02:33:51.117Z,30.85
2019-05-20T02:36:10.087Z,30.30
2019-05-20T02:38:38.655Z,30.12
2019-05-20T02:41:07.418Z,31.23
2019-05-20T02:43:36.016Z,31.75
2019-05-20T02:46:05.262Z,32.17
2019-05-20T02:48:33.782Z,32.55
2019-05-20T02:51:02.330Z,34.60
2019-05-20T02:53:30.905Z,34.75
2019-05-20T02:55:59.435Z,32.73
2019-05-20T02:58:28.063Z,33.83
2019-05-20T03:00:56.670Z,34.10
2019-05-20T03:03:25.194Z,34.45
2019-05-20T03:05:53.722Z,35.15
2019-05-20T03:08:22.261Z,34.33
2019-05-20T03:10:50.883Z,34.98
2019-05-20T03:13:19.337Z,34.83
2019-05-20T03:15:47.792Z,33.63
2019-05-20T03:18:16.328Z,34.78
2019-05-20T03:20:44.790Z,36.45
2019-05-20T03:23:13.341Z,35.03
2019-05-20T03:25:42.135Z,33.83
2019-05-20T03:28:10.725Z,33.88
2019-05-20T03:30:39.256Z,34.27
2019-05-20T03:33:07.872Z,35.38
2019-05-20T03:35:36.407Z,34.83
2019-05-20T03:38:04.992Z,34.25
2019-05-20T03:40:33.587Z,34.50
2019-05-20T03:43:02.185Z,34.80
2019-05-20T03:45:30.912Z,34.85
2019-05-20T03:47:59.439Z,35.00
2019-05-20T03:50:27.994Z,34.98
2019-05-20T03:52:56.463Z,36.77
2019-05-20T03:55:24.923Z,35.25
2019-05-20T03:57:53.601Z,36.85
2019-05-20T04:00:41.713Z,36.60
2019-05-20T04:03:10.313Z,35.30
2019-05-20T04:05:39.806Z,36.13
2019-05-20T04:08:08.399Z,34.95
2019-05-20T04:10:37.062Z,35.98
2019-05-20T04:13:05.608Z,35.45
2019-05-20T04:15:34.302Z,36.42
2019-05-20T04:18:03.010Z,35.73
2019-05-20T04:20:32.409Z,36.90
2019-05-20T04:23:00.935Z,37.83
2019-05-20T04:25:29.529Z,38.85
2019-05-20T04:27:58.127Z,37.38
2019-05-20T04:30:26.735Z,37.35
2019-05-20T04:32:55.324Z,37.03
2019-05-20T04:35:23.960Z,37.93
2019-05-20T04:37:52.537Z,36.60
2019-05-20T04:40:21.160Z,38.23
2019-05-20T04:42:49.620Z,40.17
2019-05-20T04:45:18.427Z,39.75
2019-05-20T04:47:46.968Z,37.85
2019-05-20T04:50:15.654Z,37.03
2019-05-20T04:52:44.249Z,39.80
2019-05-20T04:55:12.831Z,38.42
2019-05-20T04:57:41.356Z,37.75
2019-05-20T05:00:10.551Z,38.13
2019-05-20T05:02:43.208Z,38.50
2019-05-20T05:05:09.769Z,38.17
2019-05-20T05:07:38.434Z,37.53
2019-05-20T05:10:08.692Z,39.80
2019-05-20T05:12:37.398Z,39.48
2019-05-20T05:15:08.983Z,39.25
2019-05-20T05:17:37.617Z,38.53
2019-05-20T05:20:06.870Z,39.53
2019-05-20T05:22:35.439Z,39.67
2019-05-20T05:25:05.456Z,39.40
2019-05-20T05:27:34.147Z,38.33
2019-05-20T05:30:02.743Z,38.35
2019-05-20T05:32:44.120Z,38.80
2019-05-20T05:35:16.473Z,40.88
2019-05-20T05:37:45.208Z,39.25
2019-05-20T05:40:15.189Z,39.27
2019-05-20T05:42:43.929Z,39.23
2019-05-20T05:45:13.031Z,39.15
2019-05-20T05:47:41.489Z,41.23
2019-05-20T05:50:10.196Z,39.80
2019-05-20T05:52:38.717Z,39.53
2019-05-20T05:55:07.516Z,39.90
2019-05-20T05:57:36.041Z,39.63
2019-05-20T06:00:06.836Z,37.48
2019-05-20T06:02:35.357Z,37.23
2019-05-20T06:05:04.348Z,34.92
2019-05-20T06:07:32.904Z,35.70
2019-05-20T06:10:01.447Z,34.60
2019-05-20T06:12:29.993Z,34.10
2019-05-20T06:14:58.518Z,36.50
2019-05-20T06:17:26.965Z,36.77
2019-05-20T06:19:55.512Z,34.65
2019-05-20T06:22:23.965Z,35.83
2019-05-20T06:24:52.608Z,34.48
2019-05-20T06:27:21.302Z,36.00
2019-05-20T06:29:49.928Z,36.60
2019-05-20T06:32:18.533Z,36.50
2019-05-20T06:34:47.139Z,35.85
2019-05-20T06:37:20.321Z,38.08
2019-05-20T06:39:51.226Z,36.95
2019-05-20T06:42:19.202Z,37.93
2019-05-20T06:44:53.040Z,35.70
2019-05-20T06:47:17.979Z,35.50
2019-05-20T06:49:46.558Z,35.35
2019-05-20T06:52:15.209Z,35.92
2019-05-20T06:54:43.790Z,38.00
2019-05-20T06:57:12.816Z,36.25
2019-05-20T06:59:41.612Z,35.80
2019-05-20T07:02:10.211Z,36.50
2019-05-20T07:04:38.735Z,36.33
2019-05-20T07:07:19.977Z,36.95
2019-05-20T07:09:37.468Z,37.58
2019-05-20T07:12:06.134Z,38.23
2019-05-20T07:14:34.789Z,38.20
2019-05-20T07:17:03.446Z,39.42
2019-05-20T07:19:32.023Z,36.53
2019-05-20T07:22:00.565Z,39.23
2019-05-20T07:24:29.081Z,35.38
2019-05-20T07:26:57.676Z,33.20
2019-05-20T07:29:26.254Z,35.23
2019-05-20T07:31:54.916Z,33.98
2019-05-20T07:34:23.376Z,33.95
2019-05-20T07:37:02.638Z,32.15
2019-05-20T07:39:22.321Z,32.25
2019-05-20T07:41:51.968Z,32.70
2019-05-20T07:44:20.489Z,30.55
2019-05-20T07:46:49.301Z,30.40
2019-05-20T07:49:18.424Z,31.05
2019-05-20T07:51:48.763Z,30.57
2019-05-20T07:54:18.862Z,30.77
2019-05-20T07:56:49.765Z,31.00
2019-05-20T07:59:21.310Z,32.42
2019-05-20T08:01:51.312Z,31.40
2019-05-20T08:04:19.993Z,29.82
2019-05-20T08:06:48.723Z,31.02
2019-05-20T08:09:17.326Z,31.90
2019-05-20T08:11:45.950Z,30.43
2019-05-20T08:14:14.515Z,29.57
2019-05-20T08:16:43.139Z,30.10
2019-05-20T08:19:11.737Z,29.45
2019-05-20T08:21:40.333Z,30.00
2019-05-20T08:24:08.920Z,28.95
2019-05-20T08:26:37.494Z,32.05
2019-05-20T08:29:06.120Z,31.77
2019-05-20T08:31:34.662Z,31.33
2019-05-20T08:34:03.422Z,29.92
2019-05-20T08:36:32.217Z,30.60
2019-05-20T08:39:00.747Z,29.75
2019-05-20T08:41:29.548Z,30.43
2019-05-20T08:43:58.155Z,29.50
2019-05-20T08:46:26.762Z,29.98
2019-05-20T08:48:55.341Z,30.00
2019-05-20T08:51:23.918Z,31.05
2019-05-20T08:53:52.460Z,28.95
2019-05-20T08:56:20.994Z,27.95
2019-05-20T08:58:49.461Z,28.70
2019-05-20T09:01:17.961Z,28.52
2019-05-20T09:03:46.484Z,28.12
2019-05-20T09:06:15.168Z,29.00
2019-05-20T09:08:43.735Z,27.60
2019-05-20T09:11:12.364Z,25.27
2019-05-20T09:13:40.822Z,27.55
2019-05-20T09:16:09.387Z,26.42
2019-05-20T09:18:38.099Z,26.93
2019-05-20T09:21:06.753Z,26.65
2019-05-20T09:23:35.222Z,28.52
2019-05-20T09:26:04.029Z,26.55
2019-05-20T09:28:32.632Z,26.55
2019-05-20T09:31:01.450Z,27.27
2019-05-20T09:33:30.615Z,26.05
2019-05-20T09:35:59.246Z,24.23
2019-05-20T09:38:27.776Z,25.85
2019-05-20T09:40:56.397Z,25.77
2019-05-20T09:43:25.103Z,24.90
2019-05-20T09:46:06.327Z,25.08
2019-05-20T09:48:25.246Z,25.90
2019-05-20T09:50:54.533Z,26.02
2019-05-20T09:53:23.917Z,25.15
2019-05-20T09:55:52.683Z,24.20
2019-05-20T09:58:21.366Z,25.17
2019-05-20T10:00:49.946Z,24.65
2019-05-20T10:03:18.494Z,26.12
2019-05-20T10:05:47.109Z,26.50
2019-05-20T10:08:15.739Z,25.30
2019-05-20T10:10:44.401Z,23.47
2019-05-20T10:13:13.021Z,23.42
2019-05-20T10:15:41.587Z,23.95
2019-05-20T10:18:10.180Z,25.32
2019-05-20T10:20:38.702Z,26.07
2019-05-20T10:23:07.454Z,24.82
2019-05-20T10:25:35.960Z,24.43
2019-05-20T10:28:04.666Z,24.07
2019-05-20T10:30:33.254Z,24.18
2019-05-20T10:33:01.861Z,24.80
2019-05-20T10:35:30.431Z,24.15
2019-05-20T10:37:59.071Z,25.55
2019-05-20T10:40:27.723Z,25.95
2019-05-20T10:42:56.180Z,25.45
2019-05-20T10:45:24.715Z,25.37
2019-05-20T10:47:53.328Z,25.65
2019-05-20T10:50:22.064Z,24.67
2019-05-20T10:52:50.672Z,25.65
2019-05-20T10:55:19.821Z,24.57
2019-05-20T10:57:48.273Z,24.87
2019-05-20T11:00:18.521Z,26.65
2019-05-20T11:02:47.270Z,24.52
2019-05-20T11:05:16.023Z,24.63
2019-05-20T11:07:45.308Z,24.45
2019-05-20T11:10:15.003Z,24.25
2019-05-20T11:12:43.550Z,22.93
2019-05-20T11:15:12.440Z,24.52
2019-05-20T11:17:41.165Z,24.15
2019-05-20T11:20:10.463Z,24.63
2019-05-20T11:22:38.907Z,24.25
2019-05-20T11:25:08.390Z,24.18
2019-05-20T11:27:37.021Z,24.47
2019-05-20T11:30:09.861Z,23.73
2019-05-20T11:32:38.439Z,23.87
2019-05-20T11:35:08.634Z,25.23
2019-05-20T11:37:37.222Z,25.12
2019-05-20T11:40:09.905Z,25.57
2019-05-20T11:42:39.008Z,25.23
2019-05-20T11:45:09.391Z,24.05
2019-05-20T11:47:38.006Z,23.98
2019-05-20T11:50:07.709Z,25.05
2019-05-20T11:52:36.296Z,26.40
2019-05-20T11:55:09.174Z,25.37
2019-05-20T11:57:37.866Z,25.20
2019-05-20T12:00:08.212Z,25.60
2019-05-20T12:02:36.740Z,25.52
2019-05-20T12:05:09.747Z,25.17
2019-05-20T12:07:38.341Z,26.07
2019-05-20T12:10:08.059Z,25.55
2019-05-20T12:12:36.677Z,25.17
2019-05-20T12:15:09.714Z,25.20
2019-05-20T12:17:38.330Z,25.27
2019-05-20T12:20:10.874Z,25.30
2019-05-20T12:22:39.176Z,26.50
2019-05-20T12:25:08.435Z,25.48
2019-05-20T12:27:37.047Z,27.25
2019-05-20T12:30:06.841Z,47.73
2019-05-20T12:32:35.372Z,27.58
2019-05-20T12:35:05.771Z,25.10
2019-05-20T12:37:34.339Z,26.45
2019-05-20T12:40:07.865Z,25.40
2019-05-20T12:42:33.184Z,24.70
2019-05-20T12:45:01.748Z,26.07
2019-05-20T12:47:30.261Z,27.15
2019-05-20T12:49:58.803Z,25.20
2019-05-20T12:52:27.392Z,25.55
2019-05-20T12:55:06.859Z,27.07
2019-05-20T12:57:26.321Z,25.48
2019-05-20T12:59:54.952Z,25.43
2019-05-20T13:02:23.472Z,26.48
2019-05-20T13:04:51.990Z,25.05
2019-05-20T13:07:20.588Z,26.20
2019-05-20T13:09:49.109Z,25.30
2019-05-20T13:12:17.633Z,25.02
2019-05-20T13:14:46.157Z,25.37
2019-05-20T13:17:14.609Z,26.30
2019-05-20T13:19:43.140Z,27.48
2019-05-20T13:22:11.766Z,26.12
2019-05-20T13:24:40.291Z,34.50
2019-05-20T13:27:08.852Z,46.40
2019-05-20T13:29:37.490Z,35.88
2019-05-20T13:32:06.108Z,41.50
2019-05-20T13:34:34.644Z,29.85
2019-05-20T13:37:03.280Z,27.77
2019-05-20T13:39:33.051Z,27.27
2019-05-20T13:42:03.308Z,28.45
2019-05-20T13:44:31.868Z,26.50
2019-05-20T13:47:00.488Z,25.77
2019-05-20T13:49:29.035Z,26.57
2019-05-20T13:51:57.563Z,26.82
2019-05-20T13:54:26.209Z,27.27
2019-05-20T13:56:55.159Z,27.55
2019-05-20T13:59:23.836Z,29.18
2019-05-20T14:01:52.479Z,28.77
2019-05-20T14:04:21.272Z,29.90
2019-05-20T14:06:49.825Z,29.10
2019-05-20T14:09:18.417Z,28.98
2019-05-20T14:11:47.027Z,29.15
2019-05-20T14:14:15.666Z,29.80
2019-05-20T14:16:44.284Z,29.48
2019-05-20T14:19:12.814Z,30.82
2019-05-20T14:21:41.380Z,30.60
2019-05-20T14:24:09.984Z,29.20
2019-05-20T14:26:38.552Z,29.50
2019-05-20T14:29:07.153Z,29.27
2019-05-20T14:31:35.638Z,29.35
2019-05-20T14:34:04.238Z,28.65
2019-05-20T14:36:40.519Z,29.48
2019-05-20T14:39:04.894Z,30.00
2019-05-20T14:41:33.544Z,29.27
2019-05-20T14:44:02.189Z,28.67
2019-05-20T14:46:30.659Z,27.82
2019-05-20T14:49:02.408Z,27.62
2019-05-20T14:51:29.462Z,26.90
2019-05-20T14:53:57.984Z,27.70
2019-05-20T14:56:26.501Z,26.70
2019-05-20T14:58:55.839Z,27.27
2019-05-20T15:01:24.509Z,27.07
2019-05-20T15:03:53.119Z,25.72
2019-05-20T15:06:21.860Z,27.05
2019-05-20T15:08:50.390Z,26.37
2019-05-20T15:11:18.839Z,28.02
2019-05-20T15:13:47.438Z,27.95
2019-05-20T15:16:16.070Z,27.48
2019-05-20T15:18:44.587Z,27.10
2019-05-20T15:21:13.172Z,27.15
2019-05-20T15:23:42.587Z,26.90
2019-05-20T15:26:11.178Z,27.15
2019-05-20T15:28:39.712Z,27.10
2019-05-20T15:31:08.237Z,27.35
2019-05-20T15:33:36.888Z,26.27
2019-05-20T15:36:05.743Z,28.32
2019-05-20T15:38:34.196Z,25.40
2019-05-20T15:41:02.718Z,26.12
2019-05-20T15:43:31.177Z,25.48
2019-05-20T15:45:59.799Z,26.45
2019-05-20T15:48:28.361Z,27.05
2019-05-20T15:50:56.865Z,26.17
2019-05-20T15:53:25.455Z,26.80
2019-05-20T15:55:54.016Z,25.72
2019-05-20T15:58:23.886Z,26.62
2019-05-20T16:00:52.740Z,26.85
2019-05-20T16:03:21.293Z,27.10
2019-05-20T16:05:49.880Z,26.57
2019-05-20T16:08:18.402Z,26.55
2019-05-20T16:10:46.966Z,26.20
2019-05-20T16:13:15.556Z,27.17
2019-05-20T16:15:44.090Z,27.27
2019-05-20T16:18:12.709Z,27.48
2019-05-20T16:20:41.244Z,27.60
2019-05-20T16:23:09.801Z,27.30
2019-05-20T16:25:38.372Z,27.60
2019-05-20T16:28:07.275Z,28.20
2019-05-20T16:30:35.923Z,27.40
2019-05-20T16:33:04.583Z,29.30
2019-05-20T16:35:33.100Z,27.13
2019-05-20T16:38:01.931Z,27.77
2019-05-20T16:40:30.608Z,29.10
2019-05-20T16:42:59.257Z,30.05
2019-05-20T16:45:27.959Z,29.05
2019-05-20T16:48:14.264Z,29.80
2019-05-20T16:50:42.931Z,29.00
2019-05-20T16:53:11.539Z,30.08
2019-05-20T16:55:40.062Z,29.90
2019-05-20T16:58:08.631Z,29.48
2019-05-20T17:00:37.650Z,31.20
2019-05-20T17:03:06.241Z,29.95
2019-05-20T17:05:34.908Z,29.50
2019-05-20T17:08:03.504Z,30.68
2019-05-20T17:10:32.040Z,30.27
2019-05-20T17:13:01.030Z,30.85
2019-05-20T17:15:30.121Z,30.43
2019-05-20T17:17:59.040Z,29.67
2019-05-20T17:20:27.620Z,29.50
2019-05-20T17:22:56.353Z,29.77
2019-05-20T17:25:25.965Z,30.20
2019-05-20T17:27:55.192Z,30.43
2019-05-20T17:30:24.981Z,31.95
2019-05-20T17:32:53.803Z,31.73
2019-05-20T17:35:23.386Z,31.35
2019-05-20T17:37:55.370Z,30.82
2019-05-20T17:40:24.961Z,29.95
2019-05-20T17:42:54.414Z,30.02
2019-05-20T17:45:24.411Z,30.45
2019-05-20T17:47:55.154Z,30.27
2019-05-20T17:50:24.185Z,30.80
2019-05-20T17:52:52.871Z,29.95
2019-05-20T17:55:21.668Z,29.70
2019-05-20T17:57:50.495Z,29.50
2019-05-20T18:00:23.892Z,29.15
2019-05-20T18:02:52.799Z,28.30
2019-05-20T18:05:21.474Z,29.02
2019-05-20T18:07:50.083Z,29.95
2019-05-20T18:10:20.318Z,29.18
2019-05-20T18:12:49.168Z,30.08
2019-05-20T18:15:17.967Z,29.07
2019-05-20T18:17:47.084Z,29.77
2019-05-20T18:20:16.862Z,30.00
2019-05-20T18:22:45.736Z,31.25
2019-05-20T18:25:15.376Z,30.60
2019-05-20T18:27:44.764Z,29.85
2019-05-20T18:30:15.026Z,31.02
2019-05-20T18:32:45.263Z,30.32
2019-05-20T18:35:15.613Z,31.48
2019-05-20T18:37:45.487Z,32.03
2019-05-20T18:40:16.307Z,32.15
2019-05-20T18:42:46.268Z,31.45
2019-05-20T18:45:15.930Z,31.05
2019-05-20T18:47:45.886Z,31.00
2019-05-20T18:50:17.429Z,31.93
2019-05-20T18:52:47.858Z,32.65
2019-05-20T18:55:18.475Z,31.75
2019-05-20T18:57:48.841Z,33.33
2019-05-20T19:00:19.612Z,32.17
2019-05-20T19:02:49.757Z,32.50
2019-05-20T19:05:20.398Z,32.58
2019-05-20T19:07:52.320Z,32.63
2019-05-20T19:10:40.633Z,31.93
2019-05-20T19:13:11.946Z,33.48
2019-05-20T19:15:43.428Z,32.93
2019-05-20T19:18:14.573Z,33.80
2019-05-20T19:20:45.688Z,33.78
2019-05-20T19:23:16.750Z,32.75
2019-05-20T19:25:47.699Z,33.38
2019-05-20T19:28:18.876Z,33.78
2019-05-20T19:31:43.162Z,32.60
2019-05-20T19:34:14.820Z,32.40
2019-05-20T19:36:45.510Z,32.08
2019-05-20T19:39:16.384Z,32.53
2019-05-20T19:41:46.607Z,31.50
2019-05-20T19:44:17.847Z,31.15
2019-05-20T19:46:48.569Z,31.42
2019-05-20T19:49:19.310Z,32.13
2019-05-20T19:52:43.242Z,31.82
2019-05-20T19:55:13.523Z,31.48
2019-05-20T19:57:43.545Z,30.75
2019-05-20T20:00:13.880Z,31.15
2019-05-20T20:02:43.535Z,30.95
2019-05-20T20:05:13.749Z,30.57
2019-05-20T20:07:44.121Z,30.45
2019-05-20T20:10:14.539Z,29.90
2019-05-20T20:12:44.358Z,31.37
2019-05-20T20:15:20.822Z,28.20
2019-05-20T20:17:50.773Z,30.25
2019-05-20T20:20:20.864Z,29.85
2019-05-20T20:22:51.277Z,28.40
2019-05-20T20:25:21.613Z,31.35
2019-05-20T20:27:51.906Z,30.32
2019-05-20T20:30:21.669Z,30.08
2019-05-20T20:33:46.330Z,30.30
2019-05-20T20:36:16.417Z,29.72
2019-05-20T20:38:46.488Z,30.72
2019-05-20T20:41:16.994Z,29.95
2019-05-20T20:43:46.824Z,29.18
2019-05-20T20:46:16.386Z,28.45
2019-05-20T20:48:45.965Z,29.45
2019-05-20T20:51:14.967Z,28.12
2019-05-20T20:53:43.656Z,29.20
2019-05-20T20:56:24.711Z,30.40
2019-05-20T20:58:42.590Z,29.00
2019-05-20T21:01:11.506Z,28.47
2019-05-20T21:03:40.341Z,28.17
2019-05-20T21:06:09.021Z,27.35
2019-05-20T21:08:37.638Z,27.85
2019-05-20T21:11:07.018Z,28.27
2019-05-20T21:13:35.697Z,27.90
2019-05-20T21:16:04.316Z,28.87
2019-05-20T21:18:32.890Z,27.87
2019-05-20T21:21:01.482Z,29.23
2019-05-20T21:23:30.102Z,28.17
2019-05-20T21:25:58.620Z,29.82
2019-05-20T21:28:27.191Z,28.90
2019-05-20T21:30:55.647Z,28.85
2019-05-20T21:33:24.102Z,30.85
2019-05-20T21:35:52.772Z,31.85
2019-05-20T21:38:21.384Z,30.08
2019-05-20T21:40:49.976Z,30.08
2019-05-20T21:43:18.650Z,31.35
2019-05-20T21:45:47.163Z,32.80
2019-05-20T21:48:15.693Z,33.80
2019-05-20T21:50:44.142Z,35.68
2019-05-20T21:53:12.702Z,33.83
2019-05-20T21:55:41.219Z,34.67
2019-05-20T21:58:09.691Z,32.95
2019-05-20T22:00:45.947Z,32.40
2019-05-20T22:03:23.975Z,34.95
2019-05-20T22:05:44.821Z,34.13
2019-05-20T22:08:13.422Z,34.50
2019-05-20T22:10:41.876Z,34.80
2019-05-20T22:13:10.344Z,35.28
2019-05-20T22:15:38.931Z,34.53
2019-05-20T22:18:07.548Z,35.28
2019-05-20T22:20:36.133Z,34.48
2019-05-20T22:23:22.473Z,32.48
2019-05-20T22:25:52.500Z,34.75
2019-05-20T22:28:21.105Z,33.53
2019-05-20T22:30:49.820Z,33.58
2019-05-20T22:33:18.367Z,32.67
2019-05-20T22:35:46.869Z,32.55
2019-05-20T22:38:15.391Z,33.65
2019-05-20T22:40:44.475Z,33.30
2019-05-20T22:43:13.012Z,31.68
2019-05-20T22:45:41.489Z,32.98
2019-05-20T22:48:09.935Z,32.93
2019-05-20T22:50:38.547Z,31.90
2019-05-20T22:53:07.030Z,32.70
2019-05-20T22:55:35.497Z,32.30
2019-05-20T22:58:04.102Z,32.67
2019-05-20T23:00:32.654Z,32.45
2019-05-20T23:03:01.109Z,33.42
2019-05-20T23:05:29.579Z,33.23
2019-05-20T23:07:58.040Z,33.50
2019-05-20T23:10:26.631Z,31.95
2019-05-20T23:12:55.241Z,31.82
2019-05-20T23:15:23.814Z,31.90
2019-05-20T23:17:52.367Z,31.68
2019-05-20T23:20:20.947Z,31.40
2019-05-20T23:22:49.420Z,32.17
2019-05-20T23:25:17.899Z,33.15
2019-05-20T23:27:46.417Z,32.63
2019-05-20T23:30:15.336Z,33.13
2019-05-20T23:32:43.789Z,32.20
2019-05-20T23:35:12.425Z,31.57
2019-05-20T23:37:40.882Z,32.90
2019-05-20T23:40:11.120Z,32.42
2019-05-20T23:42:39.551Z,32.38
2019-05-20T23:45:08.838Z,32.63
2019-05-20T23:47:37.593Z,32.23
2019-05-20T23:50:06.680Z,33.45
2019-05-20T23:52:35.168Z,32.50
2019-05-20T23:55:05.103Z,32.67
2019-05-20T23:57:33.624Z,31.27
